Time;durP1;ratioP1;P1;durP2;ratioP2;P2;SDS_P1;SDS_P2;PMS_P1;PMS_P2;Temp;Humidity;BMP_temperature;BMP_pressure;BME280_temperature;BME280_humidity;BME280_pressure;Samples;Min_cycle;Max_cycle;Signal;HPM_P1;HPM_P2
2021/11/27 00:01:16;;;;;;;13.50;6.05;;;;;;;;;;5050162;28;20421;-55
2021/11/27 00:03:42;;;;;;;13.07;6.15;;;;;;;;;;5050241;28;20040;-52
2021/11/27 00:06:08;;;;;;;11.93;5.97;;;;;;;;;;5050812;28;20127;-56
2021/11/27 00:08:35;;;;;;;11.95;5.10;;;;;;;;;;5049174;28;20108;-56
2021/11/27 00:11:01;;;;;;;11.02;5.13;;;;;;;;;;5050658;28;20044;-51
2021/11/27 00:13:27;;;;;;;14.77;5.65;;;;;;;;;;5050582;28;20037;-55
2021/11/27 00:15:53;;;;;;;11.73;5.45;;;;;;;;;;5047148;28;20684;-55
2021/11/27 00:18:21;;;;;;;13.73;6.20;;;;;;;;;;5050847;28;20461;-52
2021/11/27 00:20:58;;;;;;;13.38;6.03;;;;;;;;;;5052103;28;20037;-55
2021/11/27 00:23:24;;;;;;;14.80;6.65;;;;;;;;;;5055784;28;20055;-55
2021/11/27 00:25:51;;;;;;;13.60;6.05;;;;;;;;;;5052693;28;20082;-54
2021/11/27 00:28:17;;;;;;;10.50;6.35;;;;;;;;;;5054289;28;20037;-52
2021/11/27 00:30:44;;;;;;;13.77;6.47;;;;;;;;;;5055575;28;20036;-56
2021/11/27 00:33:10;;;;;;;11.95;5.72;;;;;;;;;;5054599;28;20031;-52
2021/11/27 00:35:36;;;;;;;11.75;5.93;;;;;;;;;;5055288;28;20428;-54
2021/11/27 00:38:03;;;;;;;15.10;5.88;;;;;;;;;;5052602;28;20468;-55
2021/11/27 00:40:32;;;;;;;10.93;5.95;;;;;;;;;;5054752;28;20040;-56
2021/11/27 00:42:59;;;;;;;12.95;5.50;;;;;;;;;;5054807;28;20032;-54
2021/11/27 00:45:25;;;;;;;13.82;5.18;;;;;;;;;;5061663;28;20031;-56
2021/11/27 00:47:53;;;;;;;11.80;5.57;;;;;;;;;;5059468;28;20422;-52
2021/11/27 00:50:21;;;;;;;10.32;5.47;;;;;;;;;;5055235;28;20098;-52
2021/11/27 00:52:47;;;;;;;11.00;5.30;;;;;;;;;;5058730;28;20025;-54
2021/11/27 00:55:13;;;;;;;11.15;5.80;;;;;;;;;;5056939;28;20029;-56
2021/11/27 00:57:40;;;;;;;11.48;5.95;;;;;;;;;;5057550;28;20029;-55
2021/11/27 01:00:07;;;;;;;9.93;5.28;;;;;;;;;;5055099;28;20469;-55
2021/11/27 01:02:33;;;;;;;11.95;5.47;;;;;;;;;;5050069;28;20038;-53
2021/11/27 01:04:59;;;;;;;11.77;5.63;;;;;;;;;;5057264;28;20037;-55
2021/11/27 01:07:26;;;;;;;10.18;4.97;;;;;;;;;;5056820;28;20480;-53
2021/11/27 01:09:52;;;;;;;12.40;6.07;;;;;;;;;;5052772;28;20027;-56
2021/11/27 01:12:18;;;;;;;12.45;5.72;;;;;;;;;;5056476;28;20112;-56
2021/11/27 01:14:44;;;;;;;13.95;5.72;;;;;;;;;;5054672;28;20060;-55
2021/11/27 01:17:11;;;;;;;12.30;5.50;;;;;;;;;;5042510;28;20075;-56
2021/11/27 01:19:38;;;;;;;10.50;5.50;;;;;;;;;;5046565;28;20040;-53
2021/11/27 01:22:06;;;;;;;11.77;5.65;;;;;;;;;;5047818;28;20048;-54
2021/11/27 01:24:32;;;;;;;13.35;5.82;;;;;;;;;;5051796;28;20464;-56
2021/11/27 01:27:00;;;;;;;15.45;6.90;;;;;;;;;;5053175;28;20104;-55
2021/11/27 01:29:26;;;;;;;17.40;6.32;;;;;;;;;;5050330;28;20039;-54
2021/11/27 01:31:52;;;;;;;11.85;6.03;;;;;;;;;;5051654;28;20162;-54
2021/11/27 01:34:18;;;;;;;10.63;5.80;;;;;;;;;;5052166;28;20040;-55
2021/11/27 01:36:44;;;;;;;12.80;6.00;;;;;;;;;;5052083;28;20064;-56
2021/11/27 01:39:11;;;;;;;12.05;5.70;;;;;;;;;;5052701;28;20119;-55
2021/11/27 01:41:37;;;;;;;13.23;6.20;;;;;;;;;;5054032;28;20118;-50
2021/11/27 01:44:03;;;;;;;16.80;6.07;;;;;;;;;;5058295;28;20044;-55
2021/11/27 01:46:30;;;;;;;13.98;6.55;;;;;;;;;;5056632;28;20039;-55
2021/11/27 01:48:56;;;;;;;12.57;5.70;;;;;;;;;;5052541;28;20036;-54
2021/11/27 01:51:23;;;;;;;12.55;5.88;;;;;;;;;;5059263;28;20059;-54
2021/11/27 01:53:51;;;;;;;18.65;7.70;;;;;;;;;;5053448;28;20028;-51
2021/11/27 01:56:19;;;;;;;12.95;6.05;;;;;;;;;;5057118;28;20040;-55
2021/11/27 01:58:45;;;;;;;16.38;6.32;;;;;;;;;;5052278;28;20033;-56
2021/11/27 02:01:13;;;;;;;12.65;6.85;;;;;;;;;;5056374;28;20465;-53
2021/11/27 02:03:40;;;;;;;15.05;7.07;;;;;;;;;;5052069;28;20037;-55
2021/11/27 02:06:07;;;;;;;12.57;6.03;;;;;;;;;;5056578;28;20051;-53
2021/11/27 02:08:34;;;;;;;14.43;6.72;;;;;;;;;;5048349;28;20112;-55
2021/11/27 02:11:00;;;;;;;18.65;7.28;;;;;;;;;;5054901;28;20046;-52
2021/11/27 02:13:26;;;;;;;12.90;6.57;;;;;;;;;;5046655;28;20582;-54
2021/11/27 02:15:52;;;;;;;10.05;5.50;;;;;;;;;;5049837;28;20103;-53
2021/11/27 02:18:18;;;;;;;11.80;6.43;;;;;;;;;;5043800;28;20117;-55
2021/11/27 02:21:03;;;;;;;15.60;6.53;;;;;;;;;;5048712;28;20116;-55
2021/11/27 02:23:30;;;;;;;14.57;5.60;;;;;;;;;;5049800;28;20425;-54
2021/11/27 02:25:56;;;;;;;13.40;5.93;;;;;;;;;;5047353;28;20040;-53
2021/11/27 02:28:22;;;;;;;16.75;8.02;;;;;;;;;;5049479;28;20035;-55
2021/11/27 02:30:48;;;;;;;13.73;7.28;;;;;;;;;;5051242;28;20028;-56
2021/11/27 02:33:14;;;;;;;15.85;7.10;;;;;;;;;;5052968;28;20090;-52
2021/11/27 02:35:41;;;;;;;17.70;6.90;;;;;;;;;;5051938;28;20053;-53
2021/11/27 02:38:07;;;;;;;13.23;7.07;;;;;;;;;;5050828;28;20103;-53
2021/11/27 02:40:33;;;;;;;16.90;7.85;;;;;;;;;;5046571;28;20039;-56
2021/11/27 02:43:00;;;;;;;20.42;7.28;;;;;;;;;;5058479;28;20028;-55
2021/11/27 02:45:25;;;;;;;18.92;7.07;;;;;;;;;;5050717;28;20143;-53
2021/11/27 02:47:51;;;;;;;16.52;7.20;;;;;;;;;;5058484;28;20111;-55
2021/11/27 02:50:17;;;;;;;14.60;6.78;;;;;;;;;;5051002;28;20441;-56
2021/11/27 02:52:44;;;;;;;17.90;6.80;;;;;;;;;;5052440;28;20036;-55
2021/11/27 02:55:10;;;;;;;18.33;7.68;;;;;;;;;;5051770;28;20027;-53
2021/11/27 02:57:37;;;;;;;16.42;7.15;;;;;;;;;;5056218;28;20380;-55
2021/11/27 03:00:05;;;;;;;16.90;7.47;;;;;;;;;;5048437;28;20035;-50
2021/11/27 03:02:31;;;;;;;16.15;7.68;;;;;;;;;;5048457;28;20031;-51
2021/11/27 03:04:57;;;;;;;13.93;6.50;;;;;;;;;;5045509;28;20029;-55
2021/11/27 03:07:23;;;;;;;16.15;6.85;;;;;;;;;;5052852;28;20468;-55
2021/11/27 03:09:50;;;;;;;16.00;7.38;;;;;;;;;;5047056;28;20052;-54
2021/11/27 03:12:16;;;;;;;14.32;6.40;;;;;;;;;;5051312;28;20060;-55
2021/11/27 03:14:42;;;;;;;13.85;7.10;;;;;;;;;;5045634;28;20689;-52
2021/11/27 03:17:08;;;;;;;13.50;6.93;;;;;;;;;;5046044;28;20017;-51
2021/11/27 03:19:37;;;;;;;17.30;7.55;;;;;;;;;;5044896;28;20118;-52
2021/11/27 03:22:03;;;;;;;19.25;7.00;;;;;;;;;;5051678;28;20036;-51
2021/11/27 03:24:30;;;;;;;18.70;7.35;;;;;;;;;;5043280;28;20040;-52
2021/11/27 03:26:56;;;;;;;15.73;6.95;;;;;;;;;;5050176;28;20026;-55
2021/11/27 03:29:22;;;;;;;18.13;7.18;;;;;;;;;;5053485;28;20040;-54
2021/11/27 03:31:48;;;;;;;17.38;6.65;;;;;;;;;;5049576;28;20033;-54
2021/11/27 03:34:14;;;;;;;14.60;6.75;;;;;;;;;;5052202;28;20537;-56
2021/11/27 03:36:40;;;;;;;12.70;6.57;;;;;;;;;;5054211;28;20493;-55
2021/11/27 03:39:07;;;;;;;16.73;6.90;;;;;;;;;;5056276;28;20100;-56
2021/11/27 03:41:33;;;;;;;16.15;6.97;;;;;;;;;;5050849;28;20489;-56
2021/11/27 03:43:59;;;;;;;15.95;7.13;;;;;;;;;;5055055;28;20029;-54
2021/11/27 03:46:25;;;;;;;14.75;6.57;;;;;;;;;;5049760;28;20021;-52
2021/11/27 03:48:53;;;;;;;13.32;6.82;;;;;;;;;;5052315;28;20024;-53
2021/11/27 03:51:20;;;;;;;11.60;6.00;;;;;;;;;;5052962;28;20347;-54
2021/11/27 03:53:47;;;;;;;13.75;6.78;;;;;;;;;;5055657;28;20512;-54
2021/11/27 03:56:15;;;;;;;16.30;7.40;;;;;;;;;;5052605;28;20033;-55
2021/11/27 03:58:41;;;;;;;15.68;6.68;;;;;;;;;;5057625;28;20024;-53
2021/11/27 04:01:10;;;;;;;18.58;6.18;;;;;;;;;;5056189;28;20464;-55
2021/11/27 04:03:38;;;;;;;14.50;6.38;;;;;;;;;;5059992;28;20423;-56
2021/11/27 04:06:04;;;;;;;14.35;6.57;;;;;;;;;;5053833;28;20040;-51
2021/11/27 04:08:30;;;;;;;15.70;6.88;;;;;;;;;;5053820;28;20035;-56
2021/11/27 04:10:56;;;;;;;13.38;6.63;;;;;;;;;;5057825;28;20112;-56
2021/11/27 04:13:23;;;;;;;14.45;7.03;;;;;;;;;;5057579;28;20044;-50
2021/11/27 04:15:49;;;;;;;14.35;6.05;;;;;;;;;;5057416;28;20033;-53
2021/11/27 04:18:15;;;;;;;15.02;6.63;;;;;;;;;;5048666;28;20036;-55
2021/11/27 04:20:42;;;;;;;17.02;6.47;;;;;;;;;;5051803;28;20036;-55
2021/11/27 04:23:08;;;;;;;13.77;7.10;;;;;;;;;;5045617;28;20132;-56
2021/11/27 04:25:34;;;;;;;12.77;5.88;;;;;;;;;;5046986;28;20485;-52
2021/11/27 04:28:00;;;;;;;12.27;6.68;;;;;;;;;;5046010;28;20040;-51
2021/11/27 04:30:29;;;;;;;13.48;5.55;;;;;;;;;;5054245;28;20025;-56
2021/11/27 04:32:55;;;;;;;14.40;6.70;;;;;;;;;;5049468;28;20550;-56
2021/11/27 04:35:21;;;;;;;15.25;6.20;;;;;;;;;;5054393;28;20044;-55
2021/11/27 04:37:47;;;;;;;14.88;6.63;;;;;;;;;;5045395;28;20075;-54
2021/11/27 04:40:14;;;;;;;15.30;6.38;;;;;;;;;;5047067;28;20033;-55
2021/11/27 04:42:40;;;;;;;17.20;7.05;;;;;;;;;;5042432;28;20404;-54
2021/11/27 04:45:07;;;;;;;13.90;6.05;;;;;;;;;;5053002;28;20028;-56
2021/11/27 04:47:33;;;;;;;13.10;5.97;;;;;;;;;;5046581;28;20547;-56
2021/11/27 04:49:59;;;;;;;14.65;7.03;;;;;;;;;;5053640;28;20037;-56
2021/11/27 04:52:25;;;;;;;10.68;5.85;;;;;;;;;;5049521;28;20040;-54
2021/11/27 04:54:52;;;;;;;14.95;6.30;;;;;;;;;;5050251;28;20120;-55
2021/11/27 04:57:18;;;;;;;14.38;6.13;;;;;;;;;;5049995;28;20029;-56
2021/11/27 04:59:45;;;;;;;15.23;6.28;;;;;;;;;;5051856;28;20029;-51
2021/11/27 05:02:11;;;;;;;14.40;6.32;;;;;;;;;;5047199;28;20105;-56
2021/11/27 05:04:37;;;;;;;16.45;6.20;;;;;;;;;;5047320;28;20108;-53
2021/11/27 05:07:03;;;;;;;14.55;6.50;;;;;;;;;;5048969;28;20036;-55
2021/11/27 05:09:29;;;;;;;12.60;6.85;;;;;;;;;;5051259;28;20037;-53
2021/11/27 05:11:55;;;;;;;15.27;7.15;;;;;;;;;;5050117;28;20120;-56
2021/11/27 05:14:21;;;;;;;18.65;6.55;;;;;;;;;;5047413;28;20407;-53
2021/11/27 05:16:47;;;;;;;12.07;5.72;;;;;;;;;;5053741;28;20051;-55
2021/11/27 05:19:14;;;;;;;13.85;5.78;;;;;;;;;;5050515;28;20017;-54
2021/11/27 05:21:40;;;;;;;13.82;6.07;;;;;;;;;;5051068;28;20040;-53
2021/11/27 05:24:06;;;;;;;14.23;6.47;;;;;;;;;;5052182;28;20108;-56
2021/11/27 05:26:32;;;;;;;19.48;6.70;;;;;;;;;;5048497;28;20025;-55
2021/11/27 05:28:58;;;;;;;11.95;5.50;;;;;;;;;;5049387;28;20032;-56
2021/11/27 05:31:24;;;;;;;14.27;6.03;;;;;;;;;;5049667;28;20029;-55
2021/11/27 05:34:21;;;;;;;16.38;5.57;;;;;;;;;;5048744;28;20063;-54
2021/11/27 05:36:45;;;;;;;17.88;6.55;;;;;;;;;;5051387;28;20119;-57
2021/11/27 05:39:12;;;;;;;15.95;5.72;;;;;;;;;;5051386;28;20033;-51
2021/11/27 05:41:38;;;;;;;14.18;5.65;;;;;;;;;;5056915;28;20174;-52
2021/11/27 05:44:04;;;;;;;13.48;5.82;;;;;;;;;;5050611;28;20029;-55
2021/11/27 05:46:30;;;;;;;18.00;6.20;;;;;;;;;;5050292;28;20104;-55
2021/11/27 05:48:56;;;;;;;12.60;6.25;;;;;;;;;;5050256;28;20113;-54
2021/11/27 05:51:23;;;;;;;15.90;6.55;;;;;;;;;;5047312;28;20029;-56
2021/11/27 05:53:48;;;;;;;15.00;6.65;;;;;;;;;;5048946;28;20067;-56
2021/11/27 05:56:15;;;;;;;16.52;6.35;;;;;;;;;;5051427;28;20369;-55
2021/11/27 05:58:41;;;;;;;11.55;5.60;;;;;;;;;;5052311;28;20111;-56
2021/11/27 06:01:07;;;;;;;15.77;6.90;;;;;;;;;;5047638;28;20029;-55
2021/11/27 06:03:33;;;;;;;15.13;7.15;;;;;;;;;;5050410;28;20107;-57
2021/11/27 06:06:00;;;;;;;15.15;6.32;;;;;;;;;;5041377;28;20024;-54
2021/11/27 06:08:26;;;;;;;15.35;6.60;;;;;;;;;;5049522;28;20032;-54
2021/11/27 06:10:52;;;;;;;13.95;5.78;;;;;;;;;;5047395;28;20033;-54
2021/11/27 06:13:18;;;;;;;13.18;5.78;;;;;;;;;;5050197;28;20028;-55
2021/11/27 06:15:44;;;;;;;16.60;7.13;;;;;;;;;;5050272;28;20036;-55
2021/11/27 06:18:10;;;;;;;14.65;6.40;;;;;;;;;;5048024;28;20033;-52
2021/11/27 06:20:36;;;;;;;14.27;6.15;;;;;;;;;;5049264;28;20429;-56
2021/11/27 06:23:02;;;;;;;14.90;6.07;;;;;;;;;;5050204;28;20044;-56
2021/11/27 06:25:28;;;;;;;16.35;6.50;;;;;;;;;;5049537;28;20060;-54
2021/11/27 06:27:55;;;;;;;15.73;6.20;;;;;;;;;;5053063;28;20528;-50
2021/11/27 06:30:21;;;;;;;17.13;6.60;;;;;;;;;;5050008;28;20036;-56
2021/11/27 06:32:47;;;;;;;13.32;6.03;;;;;;;;;;5051912;28;20520;-56
2021/11/27 06:35:13;;;;;;;18.50;7.03;;;;;;;;;;5050896;28;20140;-51
2021/11/27 06:37:40;;;;;;;18.00;6.93;;;;;;;;;;5049902;28;20071;-54
2021/11/27 06:40:06;;;;;;;14.20;5.82;;;;;;;;;;5050477;28;20406;-56
2021/11/27 06:42:32;;;;;;;16.48;6.03;;;;;;;;;;5047178;28;20184;-56
2021/11/27 06:44:58;;;;;;;17.92;7.20;;;;;;;;;;5050479;28;20052;-54
2021/11/27 06:47:24;;;;;;;15.90;6.38;;;;;;;;;;5051174;28;20025;-55
2021/11/27 06:49:51;;;;;;;15.80;5.93;;;;;;;;;;5047509;28;20038;-54
2021/11/27 06:52:18;;;;;;;15.40;7.30;;;;;;;;;;5050636;28;20108;-56
2021/11/27 06:54:44;;;;;;;15.57;6.38;;;;;;;;;;5050284;28;20025;-56
2021/11/27 06:57:10;;;;;;;13.93;6.07;;;;;;;;;;5045162;28;20033;-54
2021/11/27 06:59:37;;;;;;;18.23;6.90;;;;;;;;;;5048322;28;20037;-56
2021/11/27 07:02:04;;;;;;;18.60;7.20;;;;;;;;;;5048076;28;20029;-56
2021/11/27 07:04:30;;;;;;;15.45;6.13;;;;;;;;;;5049379;28;20189;-53
2021/11/27 07:06:56;;;;;;;18.95;7.40;;;;;;;;;;5052179;28;20029;-52
2021/11/27 07:09:22;;;;;;;18.23;6.80;;;;;;;;;;5040749;28;20029;-56
2021/11/27 07:11:47;;;;;;;16.40;6.05;;;;;;;;;;5042390;28;20048;-53
2021/11/27 07:14:13;;;;;;;18.85;7.45;;;;;;;;;;5046856;28;20036;-51
2021/11/27 07:16:40;;;;;;;17.42;7.30;;;;;;;;;;5047096;28;20063;-53
2021/11/27 07:19:06;;;;;;;18.95;7.22;;;;;;;;;;5039241;28;20028;-54
2021/11/27 07:21:32;;;;;;;16.30;6.88;;;;;;;;;;5047505;28;20025;-53
2021/11/27 07:23:58;;;;;;;17.35;7.65;;;;;;;;;;5051208;28;20500;-53
2021/11/27 07:26:24;;;;;;;18.88;7.93;;;;;;;;;;5049038;28;20021;-52
2021/11/27 07:28:51;;;;;;;18.67;7.63;;;;;;;;;;5051119;28;20111;-53
2021/11/27 07:31:17;;;;;;;17.30;8.07;;;;;;;;;;5048080;28;20431;-54
2021/11/27 07:33:43;;;;;;;19.13;7.75;;;;;;;;;;5052202;28;20022;-53
2021/11/27 07:36:09;;;;;;;16.48;7.88;;;;;;;;;;5056822;28;20021;-56
2021/11/27 07:38:36;;;;;;;17.42;7.68;;;;;;;;;;5052112;28;20029;-57
2021/11/27 07:41:03;;;;;;;17.65;7.03;;;;;;;;;;5052777;28;20034;-57
2021/11/27 07:43:29;;;;;;;14.80;7.18;;;;;;;;;;5063639;28;20437;-55
2021/11/27 07:45:55;;;;;;;17.33;7.18;;;;;;;;;;5057570;28;20037;-55
2021/11/27 07:48:24;;;;;;;18.48;7.20;;;;;;;;;;5059763;28;20043;-55
2021/11/27 07:50:49;;;;;;;21.98;8.10;;;;;;;;;;5048346;28;20033;-56
2021/11/27 07:53:15;;;;;;;18.83;7.80;;;;;;;;;;5060656;28;20029;-55
2021/11/27 07:55:43;;;;;;;20.65;7.95;;;;;;;;;;5051841;28;20033;-55
2021/11/27 07:58:09;;;;;;;23.42;8.48;;;;;;;;;;5046015;28;20087;-55
2021/11/27 08:00:35;;;;;;;31.80;12.88;;;;;;;;;;5051948;28;20033;-56
2021/11/27 08:03:01;;;;;;;29.45;11.65;;;;;;;;;;5049473;28;20487;-52
2021/11/27 08:05:27;;;;;;;22.02;8.55;;;;;;;;;;5053570;28;20044;-57
2021/11/27 08:07:53;;;;;;;22.27;11.23;;;;;;;;;;5057500;28;20544;-57
2021/11/27 08:10:19;;;;;;;22.17;10.27;;;;;;;;;;5055845;28;20040;-54
2021/11/27 08:12:45;;;;;;;22.23;10.73;;;;;;;;;;5059179;28;20029;-55
2021/11/27 08:15:11;;;;;;;18.88;8.55;;;;;;;;;;5048955;28;20071;-55
2021/11/27 08:17:37;;;;;;;36.53;14.50;;;;;;;;;;5052435;28;20021;-52
2021/11/27 08:20:04;;;;;;;64.28;26.77;;;;;;;;;;5053123;28;20025;-56
2021/11/27 08:22:30;;;;;;;22.35;8.23;;;;;;;;;;5054301;28;20552;-53
2021/11/27 08:24:56;;;;;;;21.35;8.98;;;;;;;;;;5053327;28;20132;-56
2021/11/27 08:27:23;;;;;;;19.15;8.35;;;;;;;;;;5047394;28;20029;-53
2021/11/27 08:29:49;;;;;;;20.13;8.05;;;;;;;;;;5052137;28;20032;-52
2021/11/27 08:32:15;;;;;;;22.13;9.75;;;;;;;;;;5054376;28;20025;-55
2021/11/27 08:34:41;;;;;;;26.23;12.27;;;;;;;;;;5054379;28;20412;-56
2021/11/27 08:37:07;;;;;;;22.88;9.27;;;;;;;;;;5048794;28;20024;-53
2021/11/27 08:39:33;;;;;;;51.90;21.67;;;;;;;;;;5046925;28;20086;-55
2021/11/27 08:41:59;;;;;;;29.20;13.95;;;;;;;;;;5053363;28;20104;-57
2021/11/27 08:44:25;;;;;;;18.77;8.73;;;;;;;;;;5050299;28;20346;-55
2021/11/27 08:46:51;;;;;;;26.35;11.35;;;;;;;;;;5052800;28;20025;-56
2021/11/27 08:49:17;;;;;;;17.85;9.18;;;;;;;;;;5052180;28;20036;-53
2021/11/27 08:51:44;;;;;;;23.80;10.70;;;;;;;;;;5052488;28;20037;-56
2021/11/27 08:54:10;;;;;;;24.08;10.02;;;;;;;;;;5053065;28;20408;-54
2021/11/27 08:56:36;;;;;;;21.20;9.65;;;;;;;;;;5053404;28;20028;-52
2021/11/27 08:59:02;;;;;;;21.88;9.50;;;;;;;;;;5051039;28;20108;-54
2021/11/27 09:01:28;;;;;;;19.48;9.10;;;;;;;;;;5052645;28;20104;-52
2021/11/27 09:03:54;;;;;;;19.30;8.90;;;;;;;;;;5052110;28;20033;-52
2021/11/27 09:06:20;;;;;;;20.95;9.23;;;;;;;;;;5051303;28;20033;-54
2021/11/27 09:08:49;;;;;;;22.42;10.20;;;;;;;;;;5050261;28;20398;-51
2021/11/27 09:11:17;;;;;;;23.75;9.68;;;;;;;;;;5052336;28;20029;-52
2021/11/27 09:13:44;;;;;;;19.75;8.90;;;;;;;;;;5053229;28;20025;-51
2021/11/27 09:16:10;;;;;;;21.33;9.80;;;;;;;;;;5052692;28;20022;-56
2021/11/27 09:18:36;;;;;;;23.58;10.20;;;;;;;;;;5049719;28;20479;-52
2021/11/27 09:21:02;;;;;;;20.30;9.18;;;;;;;;;;5051932;28;20076;-52
2021/11/27 09:23:28;;;;;;;24.08;10.25;;;;;;;;;;5048290;28;20029;-54
2021/11/27 09:25:54;;;;;;;25.80;9.70;;;;;;;;;;5047769;28;20033;-53
2021/11/27 09:28:21;;;;;;;23.40;9.63;;;;;;;;;;5048924;28;20116;-55
2021/11/27 09:30:47;;;;;;;20.77;9.98;;;;;;;;;;5050559;28;20029;-55
2021/11/27 09:33:13;;;;;;;24.15;9.60;;;;;;;;;;5051474;28;21726;-51
2021/11/27 09:35:39;;;;;;;24.08;9.70;;;;;;;;;;5049984;28;20045;-53
2021/11/27 09:38:05;;;;;;;22.33;11.60;;;;;;;;;;5050936;28;20021;-56
2021/11/27 09:40:37;;;;;;;23.00;10.15;;;;;;;;;;5051291;28;20025;-55
2021/11/27 09:43:03;;;;;;;21.30;9.10;;;;;;;;;;5049740;28;20510;-52
2021/11/27 09:45:29;;;;;;;19.40;8.82;;;;;;;;;;5048566;28;20040;-56
2021/11/27 09:47:55;;;;;;;20.40;9.32;;;;;;;;;;5051096;28;20033;-56
2021/11/27 09:50:22;;;;;;;23.92;9.57;;;;;;;;;;5053158;28;20445;-55
2021/11/27 09:52:48;;;;;;;22.58;9.40;;;;;;;;;;5051867;28;20529;-55
2021/11/27 09:55:19;;;;;;;17.52;8.32;;;;;;;;;;5049463;28;20115;-55
2021/11/27 09:57:49;;;;;;;19.00;9.00;;;;;;;;;;5050291;28;20554;-57
2021/11/27 10:00:16;;;;;;;23.35;10.88;;;;;;;;;;5045290;28;20029;-54
2021/11/27 10:02:43;;;;;;;20.58;8.45;;;;;;;;;;5051750;28;20031;-55
2021/11/27 10:05:09;;;;;;;27.52;10.10;;;;;;;;;;5045201;28;20048;-55
2021/11/27 10:07:36;;;;;;;19.92;9.10;;;;;;;;;;5048930;28;20043;-53
2021/11/27 10:10:03;;;;;;;25.70;9.27;;;;;;;;;;5051848;28;20465;-54
2021/11/27 10:12:29;;;;;;;24.63;10.38;;;;;;;;;;5048890;28;20025;-55
2021/11/27 10:14:55;;;;;;;24.80;10.35;;;;;;;;;;5045355;28;20029;-55
2021/11/27 10:17:21;;;;;;;17.50;9.77;;;;;;;;;;5046532;28;20060;-55
2021/11/27 10:19:49;;;;;;;22.65;10.40;;;;;;;;;;5047214;28;20818;-53
2021/11/27 10:22:16;;;;;;;19.38;9.05;;;;;;;;;;5051173;28;20040;-53
2021/11/27 10:24:46;;;;;;;25.20;9.93;;;;;;;;;;5049788;28;20043;-51
2021/11/27 10:27:26;;;;;;;23.05;9.35;;;;;;;;;;5045442;28;20040;-52
2021/11/27 10:29:56;;;;;;;21.67;9.20;;;;;;;;;;5048296;28;20022;-57
2021/11/27 10:32:25;;;;;;;24.33;8.98;;;;;;;;;;5045131;28;20025;-51
2021/11/27 10:34:56;;;;;;;27.80;9.73;;;;;;;;;;5051356;28;20090;-54
2021/11/27 10:37:27;;;;;;;23.73;10.60;;;;;;;;;;5049866;28;20473;-54
2021/11/27 10:40:15;;;;;;;25.67;10.75;;;;;;;;;;5045741;28;20040;-53
2021/11/27 10:42:49;;;;;;;26.90;9.75;;;;;;;;;;5047361;28;20039;-55
2021/11/27 10:45:19;;;;;;;18.75;8.98;;;;;;;;;;5046088;28;20047;-51
2021/11/27 10:47:46;;;;;;;21.40;10.00;;;;;;;;;;5047324;28;20021;-51
2021/11/27 10:50:18;;;;;;;25.60;10.15;;;;;;;;;;5051278;28;20028;-55
2021/11/27 10:52:44;;;;;;;23.38;9.43;;;;;;;;;;5051265;28;20500;-53
2021/11/27 10:55:21;;;;;;;25.73;9.77;;;;;;;;;;5050726;28;20513;-56
2021/11/27 10:57:48;;;;;;;21.30;9.40;;;;;;;;;;5050882;28;20028;-52
2021/11/27 11:00:32;;;;;;;21.52;9.05;;;;;;;;;;5051533;28;20170;-51
2021/11/27 11:02:58;;;;;;;25.70;10.18;;;;;;;;;;5049830;28;20108;-52
2021/11/27 11:05:31;;;;;;;20.02;8.73;;;;;;;;;;5042232;28;20075;-54
2021/11/27 11:07:57;;;;;;;;;;;;;;;;;;5046170;28;20040;-53
2021/11/27 11:10:25;;;;;;;21.25;8.98;;;;;;;;;;5049373;28;19912;-54
2021/11/27 11:12:52;;;;;;;26.38;10.63;;;;;;;;;;5049974;28;20037;-51
2021/11/27 11:15:22;;;;;;;23.75;9.70;;;;;;;;;;5040721;28;20033;-53
2021/11/27 11:17:48;;;;;;;21.58;9.43;;;;;;;;;;5046401;28;20037;-55
2021/11/27 11:20:16;;;;;;;22.38;8.82;;;;;;;;;;5048822;28;20489;-54
2021/11/27 11:22:55;;;;;;;21.50;9.18;;;;;;;;;;5050619;28;20025;-54
2021/11/27 11:25:21;;;;;;;22.92;9.70;;;;;;;;;;5048190;28;20066;-56
2021/11/27 11:27:47;;;;;;;21.55;9.25;;;;;;;;;;5042586;28;20117;-54
2021/11/27 11:30:16;;;;;;;23.70;9.80;;;;;;;;;;5040069;28;20030;-56
2021/11/27 11:32:43;;;;;;;19.55;9.18;;;;;;;;;;5044744;28;20037;-56
2021/11/27 11:35:08;;;;;;;23.17;9.02;;;;;;;;;;5047822;28;20053;-55
2021/11/27 11:37:35;;;;;;;23.02;9.88;;;;;;;;;;5043545;28;20394;-54
2021/11/27 11:40:01;;;;;;;20.15;9.00;;;;;;;;;;5049971;28;20063;-53
2021/11/27 11:42:27;;;;;;;23.83;8.98;;;;;;;;;;5046483;28;20100;-54
2021/11/27 11:44:54;;;;;;;24.05;9.20;;;;;;;;;;5043414;28;20071;-54
2021/11/27 11:47:21;;;;;;;29.02;9.75;;;;;;;;;;5053909;28;20033;-57
2021/11/27 11:49:52;;;;;;;19.17;8.85;;;;;;;;;;5047436;28;20029;-53
2021/11/27 11:52:34;;;;;;;22.98;9.90;;;;;;;;;;5050109;28;20033;-56
2021/11/27 11:55:01;;;;;;;19.63;9.60;;;;;;;;;;5050007;28;20551;-57
2021/11/27 11:57:47;;;;;;;21.95;9.45;;;;;;;;;;5049913;28;20032;-55
2021/11/27 12:00:22;;;;;;;18.77;9.05;;;;;;;;;;5049036;28;20071;-55
2021/11/27 12:02:48;;;;;;;20.45;9.57;;;;;;;;;;5050978;28;20028;-56
2021/11/27 12:05:15;;;;;;;20.50;8.75;;;;;;;;;;5044483;28;20079;-56
2021/11/27 12:07:44;;;;;;;27.58;10.73;;;;;;;;;;5043760;28;20029;-56
2021/11/27 12:10:17;;;;;;;25.30;11.70;;;;;;;;;;5047703;28;20028;-54
2021/11/27 12:12:45;;;;;;;22.83;9.93;;;;;;;;;;5050646;28;20037;-56
2021/11/27 12:15:12;;;;;;;18.77;9.13;;;;;;;;;;5046005;28;20025;-54
2021/11/27 12:18:05;;;;;;;23.15;9.98;;;;;;;;;;5046836;28;20029;-57
2021/11/27 12:20:46;;;;;;;18.08;8.40;;;;;;;;;;5049307;28;20029;-56
2021/11/27 12:23:38;;;;;;;22.35;9.38;;;;;;;;;;5047963;28;20481;-56
2021/11/27 12:26:07;;;;;;;22.63;9.43;;;;;;;;;;5050779;28;20087;-55
2021/11/27 12:28:34;;;;;;;21.52;9.85;;;;;;;;;;5052282;28;20523;-56
2021/11/27 12:31:02;;;;;;;26.38;9.85;;;;;;;;;;5049462;28;20104;-56
2021/11/27 12:33:40;;;;;;;23.45;10.07;;;;;;;;;;5044274;28;20021;-56
2021/11/27 12:36:07;;;;;;;21.48;9.73;;;;;;;;;;5049526;28;20041;-54
2021/11/27 12:38:33;;;;;;;19.10;8.45;;;;;;;;;;5050307;28;20454;-54
2021/11/27 12:40:59;;;;;;;22.10;9.70;;;;;;;;;;5054090;28;20033;-52
2021/11/27 12:43:26;;;;;;;22.15;9.55;;;;;;;;;;5050838;28;20059;-57
2021/11/27 12:45:53;;;;;;;23.80;10.23;;;;;;;;;;5046505;28;20089;-56
2021/11/27 12:48:31;;;;;;;22.48;9.30;;;;;;;;;;5053327;28;20064;-56
2021/11/27 12:51:19;;;;;;;18.67;8.73;;;;;;;;;;5051439;28;20033;-55
2021/11/27 12:54:18;;;;;;;19.40;9.10;;;;;;;;;;5045752;28;20450;-57
2021/11/27 12:56:44;;;;;;;24.65;11.15;;;;;;;;;;5039390;28;20029;-52
2021/11/27 12:59:16;;;;;;;24.38;9.95;;;;;;;;;;5051108;28;20354;-56
2021/11/27 13:01:42;;;;;;;23.90;10.57;;;;;;;;;;5051870;28;20029;-55
2021/11/27 13:04:08;;;;;;;21.52;9.10;;;;;;;;;;5048174;28;20534;-51
2021/11/27 13:06:34;;;;;;;23.45;9.45;;;;;;;;;;5051935;28;20033;-55
2021/11/27 13:09:10;;;;;;;24.45;10.80;;;;;;;;;;5049551;28;20512;-52
2021/11/27 13:11:39;;;;;;;24.00;10.63;;;;;;;;;;5052818;28;20025;-55
2021/11/27 13:14:05;;;;;;;21.85;9.52;;;;;;;;;;5044198;28;20371;-54
2021/11/27 13:16:33;;;;;;;20.00;10.25;;;;;;;;;;5055463;28;20029;-57
2021/11/27 13:18:59;;;;;;;27.75;10.73;;;;;;;;;;5052552;28;20071;-57
2021/11/27 13:21:27;;;;;;;21.98;10.20;;;;;;;;;;5055337;28;20420;-55
2021/11/27 13:23:54;;;;;;;19.13;9.07;;;;;;;;;;5055079;28;20392;-56
2021/11/27 13:26:21;;;;;;;25.77;9.75;;;;;;;;;;5053511;28;20037;-57
2021/11/27 13:28:49;;;;;;;20.85;9.60;;;;;;;;;;5051501;28;20032;-56
2021/11/27 13:31:35;;;;;;;25.17;10.35;;;;;;;;;;5049116;28;20037;-55
2021/11/27 13:34:03;;;;;;;21.13;9.43;;;;;;;;;;5056661;28;20541;-57
2021/11/27 13:36:48;;;;;;;22.05;10.10;;;;;;;;;;5050595;28;20116;-55
2021/11/27 13:39:21;;;;;;;21.75;9.23;;;;;;;;;;5046161;28;20384;-57
2021/11/27 13:42:05;;;;;;;22.95;9.10;;;;;;;;;;5051422;28;20096;-55
2021/11/27 13:44:37;;;;;;;23.42;10.40;;;;;;;;;;5052295;28;20116;-57
2021/11/27 13:47:05;;;;;;;20.67;9.40;;;;;;;;;;5048314;28;20079;-54
2021/11/27 13:49:38;;;;;;;23.00;9.73;;;;;;;;;;5053215;28;20472;-56
2021/11/27 13:52:04;;;;;;;;;;;;;;;;;;5053470;28;20100;-57
2021/11/27 13:54:31;;;;;;;24.35;9.43;;;;;;;;;;5051165;28;20071;-57
2021/11/27 13:56:58;;;;;;;22.83;10.35;;;;;;;;;;5044646;28;20524;-57
2021/11/27 13:59:32;;;;;;;20.17;9.55;;;;;;;;;;5051902;28;20528;-57
2021/11/27 14:02:01;;;;;;;23.13;9.50;;;;;;;;;;5051342;28;20134;-55
2021/11/27 14:04:28;;;;;;;23.48;10.15;;;;;;;;;;5050592;28;20098;-56
2021/11/27 14:07:04;;;;;;;18.35;8.93;;;;;;;;;;5044697;28;20028;-56
2021/11/27 14:09:54;;;;;;;25.33;9.45;;;;;;;;;;5051831;28;20028;-56
2021/11/27 14:12:38;;;;;;;27.65;13.25;;;;;;;;;;5046454;28;20034;-57
2021/11/27 14:15:12;;;;;;;25.25;10.80;;;;;;;;;;5048123;28;20420;-55
2021/11/27 14:17:39;;;;;;;20.80;9.55;;;;;;;;;;5045554;28;20102;-54
2021/11/27 14:20:16;;;;;;;21.23;10.00;;;;;;;;;;5050469;28;20131;-56
2021/11/27 14:23:02;;;;;;;19.52;9.88;;;;;;;;;;5043539;28;20021;-53
2021/11/27 14:25:29;;;;;;;21.23;10.43;;;;;;;;;;5045822;28;20033;-54
2021/11/27 14:28:03;;;;;;;27.35;11.52;;;;;;;;;;5049644;28;20036;-52
2021/11/27 14:30:33;;;;;;;25.83;10.82;;;;;;;;;;5049197;28;20047;-53
2021/11/27 14:33:17;;;;;;;23.10;10.00;;;;;;;;;;5047533;28;20117;-56